createdAt,value
2023-03-25T00:01:36.393Z,87.78
2023-03-25T00:04:06.240Z,88.49
2023-03-25T00:06:34.900Z,89.57
2023-03-25T00:09:04.996Z,89.58
2023-03-25T00:11:32.838Z,90.80
2023-03-25T00:14:00.987Z,89.62
2023-03-25T00:16:28.928Z,89.58
2023-03-25T00:18:59.876Z,89.13
2023-03-25T00:21:29.364Z,89.69
2023-03-25T00:23:59.613Z,90.23
2023-03-25T00:26:30.169Z,90.17
2023-03-25T00:28:58.124Z,90.42
2023-03-25T00:31:25.868Z,89.67
2023-03-25T00:33:53.780Z,90.08
2023-03-25T00:36:21.644Z,89.51
2023-03-25T00:38:51.321Z,90.30
2023-03-25T00:41:23.019Z,91.50
2023-03-25T00:43:52.732Z,92.43
2023-03-25T00:46:22.843Z,91.59
2023-03-25T00:48:50.882Z,91.69
2023-03-25T00:51:21.752Z,92.03
2023-03-25T00:57:30.019Z,91.33
2023-03-25T00:59:59.375Z,91.65
2023-03-25T01:02:28.632Z,92.19
2023-03-25T01:04:58.080Z,90.49
2023-03-25T01:07:26.015Z,90.54
2023-03-25T01:09:53.898Z,90.06
2023-03-25T01:12:21.640Z,89.40
2023-03-25T01:14:49.818Z,88.88
2023-03-25T01:17:19.488Z,90.17
2023-03-25T01:19:47.205Z,91.07
2023-03-25T01:22:15.407Z,91.80
2023-03-25T01:24:43.633Z,91.56
2023-03-25T01:27:11.840Z,92.17
2023-03-25T01:29:39.843Z,94.88
2023-03-25T01:32:08.075Z,96.03
2023-03-25T01:34:38.798Z,96.84
2023-03-25T01:37:08.523Z,96.91
2023-03-25T01:39:37.088Z,98.72
2023-03-25T01:42:05.808Z,98.98
2023-03-25T01:45:11.088Z,99.95
2023-03-25T01:47:39.375Z,100.00
2023-03-25T01:50:14.751Z,100.00
2023-03-25T01:52:46.285Z,100.00
2023-03-25T01:55:14.982Z,100.00
2023-03-25T01:57:46.313Z,100.00
2023-03-25T02:00:16.562Z,100.00
2023-03-25T02:02:46.360Z,100.00
2023-03-25T02:05:22.620Z,100.00
2023-03-25T02:07:51.006Z,100.00
2023-03-25T02:10:20.722Z,100.00
2023-03-25T02:12:48.632Z,100.00
2023-03-25T02:15:19.250Z,100.00
2023-03-25T02:18:02.913Z,100.00
2023-03-25T02:21:18.102Z,100.00
2023-03-25T02:24:17.839Z,100.00
2023-03-25T02:27:15.109Z,100.00
2023-03-25T02:29:59.023Z,100.00
2023-03-25T02:32:45.384Z,100.00
2023-03-25T02:35:29.954Z,100.00
2023-03-25T02:38:19.035Z,100.00
2023-03-25T02:40:58.628Z,100.00
2023-03-25T02:43:33.588Z,100.00
2023-03-25T02:46:05.700Z,100.00
2023-03-25T02:48:39.021Z,100.00
2023-03-25T02:51:11.624Z,100.00
2023-03-25T02:53:44.042Z,100.00
2023-03-25T02:56:17.601Z,100.00
2023-03-25T02:58:47.863Z,100.00
2023-03-25T03:01:15.875Z,100.00
2023-03-25T03:03:45.152Z,100.00
2023-03-25T03:06:18.937Z,99.57
2023-03-25T03:09:01.124Z,98.32
2023-03-25T03:11:33.901Z,98.58
2023-03-25T03:14:16.999Z,97.95
2023-03-25T03:16:51.755Z,98.52
2023-03-25T03:19:34.249Z,98.11
2023-03-25T03:22:14.014Z,95.93
2023-03-25T03:24:47.330Z,98.01
2023-03-25T03:27:25.730Z,98.13
2023-03-25T03:30:00.512Z,98.70
2023-03-25T03:32:34.818Z,98.85
2023-03-25T03:35:08.280Z,99.03
2023-03-25T03:37:40.391Z,99.77
2023-03-25T03:40:16.380Z,100.00
2023-03-25T03:42:48.125Z,98.54
2023-03-25T03:45:20.699Z,98.60
2023-03-25T03:47:54.072Z,98.14
2023-03-25T03:50:26.687Z,98.18
2023-03-25T03:53:03.085Z,98.63
2023-03-25T03:55:38.375Z,99.54
2023-03-25T03:58:15.255Z,97.76
2023-03-25T04:00:50.236Z,95.70
2023-03-25T04:03:24.380Z,96.57
2023-03-25T04:05:58.813Z,96.11
2023-03-25T04:08:32.356Z,97.34
2023-03-25T04:11:08.016Z,96.72
2023-03-25T04:13:39.238Z,97.98
2023-03-25T04:16:08.580Z,96.30
2023-03-25T04:18:36.910Z,95.43
2023-03-25T04:21:05.187Z,96.03
2023-03-25T04:23:34.498Z,98.10
2023-03-25T04:26:03.896Z,95.82
2023-03-25T04:28:32.732Z,95.92
2023-03-25T04:31:05.517Z,96.67
2023-03-25T04:33:33.295Z,96.98
2023-03-25T04:36:01.983Z,98.30
2023-03-25T04:38:30.425Z,99.22
2023-03-25T04:41:00.358Z,98.99
2023-03-25T04:43:30.042Z,100.00
2023-03-25T04:46:00.140Z,100.00
2023-03-25T04:48:31.648Z,100.00
2023-03-25T04:51:00.013Z,100.00
2023-03-25T04:53:28.512Z,100.00
2023-03-25T04:55:56.591Z,100.00
2023-03-25T04:58:24.613Z,100.00
2023-03-25T05:00:54.308Z,100.00
2023-03-25T05:03:24.259Z,100.00
2023-03-25T05:05:53.393Z,100.00
2023-03-25T05:08:22.618Z,100.00
2023-03-25T05:10:51.206Z,100.00
2023-03-25T05:13:19.367Z,100.00
2023-03-25T05:15:48.889Z,100.00
2023-03-25T05:18:18.823Z,99.12
2023-03-25T05:20:51.079Z,99.42
2023-03-25T05:23:19.768Z,98.44
2023-03-25T05:25:48.757Z,98.91
2023-03-25T05:28:18.295Z,99.86
2023-03-25T05:30:48.076Z,100.00
2023-03-25T05:33:19.086Z,98.38
2023-03-25T05:35:47.488Z,97.00
2023-03-25T05:38:18.788Z,98.86
2023-03-25T05:40:47.699Z,98.61
2023-03-25T05:43:16.180Z,96.57
2023-03-25T05:45:45.081Z,97.29
2023-03-25T05:48:12.972Z,98.58
2023-03-25T05:50:43.597Z,98.13
2023-03-25T05:53:13.648Z,99.27
2023-03-25T05:55:41.563Z,100.00
2023-03-25T05:58:09.524Z,100.00
2023-03-25T06:00:37.552Z,100.00
2023-03-25T06:03:08.642Z,100.00
2023-03-25T06:05:36.793Z,100.00
2023-03-25T06:08:06.288Z,100.00
2023-03-25T06:10:34.459Z,100.00
2023-03-25T06:13:02.678Z,100.00
2023-03-25T06:15:33.688Z,100.00
2023-03-25T06:18:02.599Z,100.00
2023-03-25T06:20:30.432Z,100.00
2023-03-25T06:22:59.025Z,100.00
2023-03-25T06:25:28.432Z,100.00
2023-03-25T06:27:58.547Z,100.00
2023-03-25T06:30:28.503Z,100.00
2023-03-25T06:32:57.834Z,100.00
2023-03-25T06:35:25.890Z,100.00
2023-03-25T06:37:53.951Z,100.00
2023-03-25T06:40:31.164Z,100.00
2023-03-25T06:43:02.646Z,100.00
2023-03-25T06:45:53.889Z,100.00
2023-03-25T06:48:29.083Z,100.00
2023-03-25T06:50:57.453Z,100.00
2023-03-25T06:53:26.053Z,100.00
2023-03-25T06:55:57.864Z,98.93
2023-03-25T06:58:34.956Z,98.41
2023-03-25T07:01:07.657Z,97.87
2023-03-25T07:03:37.541Z,96.86
2023-03-25T07:06:06.845Z,96.26
2023-03-25T07:08:36.053Z,94.33
2023-03-25T07:11:07.306Z,95.59
2023-03-25T07:13:35.494Z,95.50
2023-03-25T07:16:04.059Z,95.32
2023-03-25T07:18:31.996Z,91.53
2023-03-25T07:21:00.816Z,92.07
2023-03-25T07:23:28.883Z,91.87
2023-03-25T07:25:57.353Z,93.47
2023-03-25T07:28:26.730Z,92.26
2023-03-25T07:30:54.829Z,90.16
2023-03-25T07:33:23.139Z,91.84
2023-03-25T07:35:51.640Z,90.26
2023-03-25T07:38:19.651Z,91.51
2023-03-25T07:40:49.849Z,89.06
2023-03-25T07:43:18.210Z,88.83
2023-03-25T07:46:07.626Z,86.91
2023-03-25T07:48:36.795Z,88.94
2023-03-25T07:51:05.400Z,90.12
2023-03-25T07:53:33.273Z,88.49
2023-03-25T07:56:01.150Z,88.75
2023-03-25T07:58:30.529Z,88.43
2023-03-25T08:00:58.704Z,87.93
2023-03-25T08:03:29.237Z,87.81
2023-03-25T08:05:57.454Z,87.51
2023-03-25T08:08:25.388Z,87.86
2023-03-25T08:10:54.068Z,87.30
2023-03-25T08:13:22.155Z,88.22
2023-03-25T08:15:50.592Z,88.56
2023-03-25T08:18:18.628Z,87.66
2023-03-25T08:20:50.582Z,87.27
2023-03-25T08:23:20.217Z,87.33
2023-03-25T08:25:50.407Z,89.00
2023-03-25T08:28:22.491Z,88.93
2023-03-25T08:30:54.644Z,89.39
2023-03-25T08:33:27.287Z,89.00
2023-03-25T08:35:58.556Z,86.82
2023-03-25T08:38:34.680Z,88.08
2023-03-25T08:41:04.243Z,92.52
2023-03-25T08:43:32.639Z,92.83
2023-03-25T08:46:00.796Z,93.81
2023-03-25T08:48:29.040Z,91.08
2023-03-25T08:50:58.588Z,90.90
2023-03-25T08:53:26.801Z,89.84
2023-03-25T08:55:55.096Z,88.58
2023-03-25T08:58:24.078Z,90.21
2023-03-25T09:00:54.395Z,91.58
2023-03-25T09:03:23.055Z,89.33
2023-03-25T09:05:51.603Z,88.38
2023-03-25T09:08:21.905Z,89.90
2023-03-25T09:10:51.643Z,91.43
2023-03-25T09:13:19.918Z,89.62
2023-03-25T09:15:47.875Z,89.98
2023-03-25T09:18:15.836Z,92.50
2023-03-25T09:20:47.592Z,92.07
2023-03-25T09:23:15.623Z,95.39
2023-03-25T09:25:45.018Z,94.41
2023-03-25T09:28:13.400Z,94.71
2023-03-25T09:30:41.331Z,95.08
2023-03-25T09:33:09.894Z,94.63
2023-03-25T09:35:38.141Z,92.75
2023-03-25T09:38:06.167Z,92.25
2023-03-25T09:40:36.035Z,90.17
2023-03-25T09:43:20.504Z,88.81
2023-03-25T09:45:50.218Z,91.03
2023-03-25T09:48:28.426Z,94.13
2023-03-25T09:50:59.137Z,98.90
2023-03-25T09:53:32.793Z,100.00
2023-03-25T09:56:01.526Z,100.00
2023-03-25T09:58:42.857Z,100.00
2023-03-25T10:01:28.149Z,100.00
2023-03-25T10:04:04.094Z,91.54
2023-03-25T10:06:40.051Z,86.40
2023-03-25T10:09:24.356Z,86.96
2023-03-25T10:12:01.285Z,85.12
2023-03-25T10:14:38.980Z,81.30
2023-03-25T10:17:18.377Z,79.31
2023-03-25T10:19:55.709Z,76.99
2023-03-25T10:22:30.470Z,79.30
2023-03-25T10:25:02.010Z,80.08
2023-03-25T10:27:35.712Z,79.15
2023-03-25T10:30:14.074Z,73.31
2023-03-25T10:32:47.001Z,74.79
2023-03-25T10:35:20.283Z,73.27
2023-03-25T10:37:51.727Z,72.42
2023-03-25T10:40:25.677Z,73.13
2023-03-25T10:43:05.080Z,72.66
2023-03-25T10:45:36.700Z,74.57
2023-03-25T10:48:12.549Z,80.99
2023-03-25T10:50:42.760Z,89.39
2023-03-25T10:53:21.454Z,94.13
2023-03-25T10:55:53.057Z,98.49
2023-03-25T10:58:21.600Z,100.00
2023-03-25T11:00:50.910Z,100.00
2023-03-25T11:03:23.653Z,100.00
2023-03-25T11:05:52.995Z,98.99
2023-03-25T11:08:24.867Z,97.59
2023-03-25T11:10:57.650Z,92.61
2023-03-25T11:13:28.050Z,86.36
2023-03-25T11:16:02.578Z,87.09
2023-03-25T11:18:36.278Z,83.30
2023-03-25T11:21:08.986Z,81.16
2023-03-25T11:23:38.797Z,80.98
2023-03-25T11:26:09.386Z,80.85
2023-03-25T11:28:41.442Z,78.13
2023-03-25T11:31:17.297Z,75.65
2023-03-25T11:33:46.724Z,74.24
2023-03-25T11:36:24.018Z,74.46
2023-03-25T11:38:58.411Z,71.18
2023-03-25T11:41:31.339Z,69.63
2023-03-25T11:43:59.814Z,69.95
2023-03-25T11:46:29.118Z,70.12
2023-03-25T11:48:57.163Z,71.01
2023-03-25T11:51:29.269Z,68.99
2023-03-25T11:54:00.752Z,68.18
2023-03-25T11:56:35.967Z,65.85
2023-03-25T11:59:08.525Z,66.57
2023-03-25T12:01:43.322Z,66.94
2023-03-25T12:04:18.461Z,65.80
2023-03-25T12:06:58.928Z,64.06
2023-03-25T12:09:30.300Z,63.83
2023-03-25T12:12:17.876Z,61.51
2023-03-25T12:14:54.390Z,62.13
2023-03-25T12:17:34.769Z,60.33
2023-03-25T12:20:16.103Z,61.33
2023-03-25T12:23:01.270Z,60.49
2023-03-25T12:25:42.743Z,61.40
2023-03-25T12:28:33.974Z,60.70
2023-03-25T12:31:11.326Z,59.21
2023-03-25T12:33:54.483Z,58.78
2023-03-25T12:36:35.562Z,56.77
2023-03-25T12:39:17.262Z,59.09
2023-03-25T12:41:55.758Z,57.03
2023-03-25T12:44:47.961Z,55.69
2023-03-25T12:47:23.000Z,55.80
2023-03-25T12:50:09.622Z,57.50
2023-03-25T12:52:44.655Z,58.43
2023-03-25T12:55:39.768Z,57.53
2023-03-25T12:58:26.427Z,58.06
2023-03-25T13:01:02.277Z,58.28
2023-03-25T13:03:55.488Z,57.51
2023-03-25T13:06:35.931Z,57.99
2023-03-25T13:09:11.178Z,57.44
2023-03-25T13:11:48.025Z,56.53
2023-03-25T13:14:22.055Z,56.97
2023-03-25T13:16:56.374Z,56.98
2023-03-25T13:19:28.747Z,56.01
2023-03-25T13:22:01.863Z,56.29
2023-03-25T13:24:39.725Z,55.89
2023-03-25T13:27:09.221Z,55.83
2023-03-25T13:29:42.961Z,54.49
2023-03-25T13:32:19.330Z,54.30
2023-03-25T13:34:53.528Z,54.36
2023-03-25T13:37:29.463Z,55.18
2023-03-25T13:40:14.764Z,56.57
2023-03-25T13:42:49.747Z,57.52
2023-03-25T13:45:19.964Z,56.79
2023-03-25T13:47:55.579Z,55.61
2023-03-25T13:50:29.164Z,55.34
2023-03-25T13:53:04.742Z,54.52
2023-03-25T13:55:37.741Z,55.62
2023-03-25T13:58:40.847Z,54.12
2023-03-25T14:01:39.939Z,54.34
2023-03-25T14:04:38.844Z,55.90
2023-03-25T14:07:40.232Z,55.00
2023-03-25T14:10:26.626Z,55.33
2023-03-25T14:13:02.112Z,55.26
2023-03-25T14:15:35.088Z,53.79
2023-03-25T14:18:05.573Z,54.40
2023-03-25T14:20:37.768Z,55.12
2023-03-25T14:23:09.888Z,54.01
2023-03-25T14:25:43.982Z,53.08
2023-03-25T14:28:18.369Z,52.77
2023-03-25T14:31:24.509Z,52.15
2023-03-25T14:34:25.406Z,53.02
2023-03-25T14:37:18.629Z,52.68
2023-03-25T14:39:47.220Z,52.42
2023-03-25T14:42:29.973Z,52.35
2023-03-25T14:45:32.443Z,51.59
2023-03-25T14:48:01.586Z,52.33
2023-03-25T14:50:35.919Z,51.73
2023-03-25T14:53:07.795Z,50.51
2023-03-25T14:55:42.587Z,48.51
2023-03-25T14:58:21.050Z,49.39
2023-03-25T15:00:55.203Z,49.65
2023-03-25T15:03:29.159Z,49.32
2023-03-25T15:06:00.332Z,49.87
2023-03-25T15:08:36.945Z,49.78
2023-03-25T15:11:09.839Z,50.63
2023-03-25T15:13:44.001Z,51.57
2023-03-25T15:16:20.100Z,51.58
2023-03-25T15:19:03.605Z,51.35
2023-03-25T15:22:14.641Z,52.36
2023-03-25T15:24:48.887Z,50.99
2023-03-25T15:27:40.705Z,52.25
2023-03-25T15:30:32.430Z,50.83
2023-03-25T15:33:17.618Z,51.94
2023-03-25T15:36:01.417Z,52.06
2023-03-25T15:38:50.990Z,52.89
2023-03-25T15:41:54.875Z,52.35
2023-03-25T15:44:47.778Z,51.13
2023-03-25T15:47:38.784Z,52.88
2023-03-25T15:50:25.118Z,52.89
2023-03-25T15:53:41.762Z,52.54
2023-03-25T15:56:14.944Z,53.27
2023-03-25T15:58:52.682Z,53.00
2023-03-25T16:01:27.826Z,52.93
2023-03-25T16:04:03.326Z,53.13
2023-03-25T16:06:36.270Z,53.79
2023-03-25T16:09:05.289Z,54.04
2023-03-25T16:11:33.504Z,54.22
2023-03-25T16:14:08.417Z,54.68
2023-03-25T16:16:40.093Z,55.38
2023-03-25T16:19:18.336Z,55.96
2023-03-25T16:21:50.001Z,55.33
2023-03-25T16:24:20.968Z,55.24
2023-03-25T16:26:51.198Z,54.33
2023-03-25T16:29:21.257Z,55.48
2023-03-25T16:31:56.551Z,55.49
2023-03-25T16:34:31.762Z,55.00
2023-03-25T16:37:01.131Z,55.38
2023-03-25T16:39:33.349Z,56.21
2023-03-25T16:42:06.415Z,56.39
2023-03-25T16:44:35.696Z,56.14
2023-03-25T16:47:04.814Z,56.87
2023-03-25T16:49:39.270Z,54.98
2023-03-25T16:52:14.785Z,55.60
2023-03-25T16:54:48.834Z,55.40
2023-03-25T16:57:20.751Z,55.30
2023-03-25T16:59:52.164Z,54.54
2023-03-25T17:02:27.067Z,54.99
2023-03-25T17:05:13.398Z,54.88
2023-03-25T17:07:42.837Z,55.78
2023-03-25T17:10:20.646Z,56.38
2023-03-25T17:12:55.803Z,56.94
2023-03-25T17:15:25.051Z,57.90
2023-03-25T17:18:00.188Z,57.91
2023-03-25T17:20:34.965Z,57.97
2023-03-25T17:23:08.611Z,57.91
2023-03-25T17:25:49.337Z,58.84
2023-03-25T17:28:31.213Z,59.86
2023-03-25T17:31:00.234Z,60.58
2023-03-25T17:33:36.047Z,60.63
2023-03-25T17:36:14.000Z,64.91
2023-03-25T17:38:46.024Z,70.54
2023-03-25T17:41:16.456Z,70.70
2023-03-25T17:43:49.455Z,75.59
2023-03-25T17:46:21.955Z,83.67
2023-03-25T17:48:53.234Z,94.22
2023-03-25T17:51:23.284Z,100.00
2023-03-25T17:53:51.077Z,100.00
2023-03-25T17:56:24.301Z,100.00
2023-03-25T17:58:53.886Z,100.00
2023-03-25T18:01:22.231Z,100.00
2023-03-25T18:03:50.091Z,100.00
2023-03-25T18:06:18.064Z,100.00
2023-03-25T18:08:47.680Z,100.00
2023-03-25T18:11:16.523Z,100.00
2023-03-25T18:13:47.901Z,100.00
2023-03-25T18:16:16.335Z,100.00
2023-03-25T18:18:44.417Z,100.00
2023-03-25T18:21:14.854Z,100.00
2023-03-25T18:23:44.822Z,100.00
2023-03-25T18:26:18.022Z,100.00
2023-03-25T18:28:48.616Z,100.00
2023-03-25T18:31:18.602Z,100.00
2023-03-25T18:33:48.651Z,100.00
2023-03-25T18:36:17.419Z,100.00
2023-03-25T18:38:46.704Z,100.00
2023-03-25T18:41:17.316Z,100.00
2023-03-25T18:43:45.800Z,100.00
2023-03-25T18:46:15.556Z,100.00
2023-03-25T18:48:44.231Z,100.00
2023-03-25T18:51:13.914Z,100.00
2023-03-25T18:53:42.521Z,100.00
2023-03-25T18:56:11.204Z,100.00
2023-03-25T18:58:40.939Z,100.00
2023-03-25T19:01:10.040Z,100.00
2023-03-25T19:03:39.749Z,100.00
2023-03-25T19:06:11.586Z,100.00
2023-03-25T19:08:39.851Z,100.00
2023-03-25T19:11:19.817Z,100.00
2023-03-25T19:13:52.615Z,100.00
2023-03-25T19:16:21.640Z,100.00
2023-03-25T19:18:50.495Z,100.00
2023-03-25T19:21:20.703Z,100.00
2023-03-25T19:23:52.657Z,100.00
2023-03-25T19:26:21.001Z,100.00
2023-03-25T19:28:49.588Z,100.00
2023-03-25T19:31:19.251Z,100.00
2023-03-25T19:33:47.952Z,100.00
2023-03-25T19:36:19.105Z,100.00
2023-03-25T19:38:47.760Z,100.00
2023-03-25T19:41:16.746Z,100.00
2023-03-25T19:43:45.348Z,100.00
2023-03-25T19:46:13.620Z,100.00
2023-03-25T19:48:43.453Z,100.00
2023-03-25T19:51:11.640Z,100.00
2023-03-25T19:53:40.108Z,100.00
2023-03-25T19:56:13.866Z,100.00
2023-03-25T19:58:42.310Z,100.00
2023-03-25T20:01:10.465Z,100.00
2023-03-25T20:03:38.871Z,100.00
2023-03-25T20:06:09.498Z,100.00
2023-03-25T20:08:37.734Z,100.00
2023-03-25T20:11:11.500Z,100.00
2023-03-25T20:13:40.316Z,100.00
2023-03-25T20:16:09.447Z,100.00
2023-03-25T20:18:37.835Z,100.00
2023-03-25T20:21:09.875Z,100.00
2023-03-25T20:23:38.055Z,100.00
2023-03-25T20:26:07.183Z,100.00
2023-03-25T20:28:37.601Z,100.00
2023-03-25T20:31:19.943Z,100.00
2023-03-25T20:33:50.022Z,100.00
2023-03-25T20:36:21.679Z,100.00
2023-03-25T20:38:57.696Z,100.00
2023-03-25T20:41:27.574Z,100.00
2023-03-25T20:43:56.261Z,100.00
2023-03-25T20:46:28.604Z,100.00
2023-03-25T20:48:58.000Z,100.00
2023-03-25T20:51:28.117Z,100.00
2023-03-25T20:53:58.049Z,100.00
2023-03-25T20:56:27.632Z,100.00
2023-03-25T20:58:56.480Z,100.00
2023-03-25T21:01:25.073Z,100.00
2023-03-25T21:03:53.532Z,100.00
2023-03-25T21:06:25.563Z,100.00
2023-03-25T21:09:01.028Z,100.00
2023-03-25T21:11:33.561Z,100.00
2023-03-25T21:14:01.868Z,100.00
2023-03-25T21:16:31.137Z,100.00
2023-03-25T21:19:02.392Z,100.00
2023-03-25T21:21:30.761Z,100.00
2023-03-25T21:24:00.595Z,100.00
2023-03-25T21:26:28.970Z,100.00
2023-03-25T21:28:58.084Z,100.00
2023-03-25T21:31:27.244Z,100.00
2023-03-25T21:33:57.296Z,100.00
2023-03-25T21:36:28.204Z,100.00
2023-03-25T21:38:58.526Z,100.00
2023-03-25T21:41:29.896Z,100.00
2023-03-25T21:43:58.409Z,100.00
2023-03-25T21:46:28.023Z,100.00
2023-03-25T21:48:58.473Z,100.00
2023-03-25T21:51:30.752Z,100.00
2023-03-25T21:54:00.996Z,100.00
2023-03-25T21:56:32.461Z,100.00
2023-03-25T21:59:03.529Z,100.00
2023-03-25T22:01:32.743Z,100.00
2023-03-25T22:04:03.712Z,100.00
2023-03-25T22:06:35.630Z,100.00
2023-03-25T22:09:06.514Z,100.00
2023-03-25T22:11:38.180Z,100.00
2023-03-25T22:14:06.810Z,100.00
2023-03-25T22:16:35.412Z,100.00
2023-03-25T22:19:05.013Z,100.00
2023-03-25T22:21:37.505Z,100.00
2023-03-25T22:24:07.778Z,100.00
2023-03-25T22:26:40.084Z,100.00
2023-03-25T22:29:10.405Z,100.00
2023-03-25T22:31:42.022Z,100.00
2023-03-25T22:34:12.601Z,100.00
2023-03-25T22:36:45.398Z,100.00
2023-03-25T22:39:13.456Z,100.00
2023-03-25T22:41:42.673Z,100.00
2023-03-25T22:44:10.786Z,100.00
2023-03-25T22:46:39.029Z,100.00
2023-03-25T22:49:07.612Z,100.00
2023-03-25T22:51:35.982Z,100.00
2023-03-25T22:54:05.436Z,100.00
2023-03-25T22:56:34.569Z,100.00
2023-03-25T22:59:05.792Z,100.00
2023-03-25T23:01:35.982Z,100.00
2023-03-25T23:04:04.411Z,100.00
2023-03-25T23:06:33.334Z,100.00
2023-03-25T23:09:01.176Z,100.00
2023-03-25T23:11:31.484Z,100.00
2023-03-25T23:14:01.623Z,100.00
2023-03-25T23:16:34.389Z,100.00
2023-03-25T23:19:03.394Z,100.00
2023-03-25T23:21:32.430Z,100.00
2023-03-25T23:24:02.991Z,100.00
2023-03-25T23:26:35.762Z,100.00
2023-03-25T23:29:05.624Z,100.00
2023-03-25T23:31:36.597Z,100.00
2023-03-25T23:34:06.548Z,100.00
2023-03-25T23:36:36.911Z,100.00
2023-03-25T23:39:06.893Z,100.00
2023-03-25T23:41:36.072Z,100.00
2023-03-25T23:44:05.077Z,100.00
2023-03-25T23:46:33.293Z,100.00
2023-03-25T23:49:03.220Z,100.00
2023-03-25T23:51:33.600Z,100.00
2023-03-25T23:54:02.286Z,100.00
2023-03-25T23:56:31.262Z,100.00
2023-03-25T23:59:00.430Z,100.00
